Capetan Polichronis — SV3590 — position and weather

sailwx.info

Track history (hours):
 
Tides and Currents Weather Stations Pressure Air Temp Water Temp Dewpoint Dewpoint Depression Visibility Wind Speed Wind Dir Waves Ship Positions

Capetan Polichronis

Last reported at 2018-May-20 13:14 UTC. Time now 2018-May-22 19:48 UTC.
Position N 40°48' E 025°35'.

Length 21 m; draft 2.1 m.

Type: Fishing. MMSI: 237058000.

Date/timePositionNaut miles runAvg speedWind from/ knotsBaromVisibWave heightAir tempDewpointWater temp
2018-May-20 13:14N 40°48' E 025°35'3 0.8
2018-May-20 10:00N 40°48' E 025°31'17 1.0
2018-May-19 17:04N 40°50' E 025°53'18 1.6
2018-May-19 06:09N 40°50' E 025°30'1 2.8
2018-May-19 05:57N 40°50' E 025°29'1 2.0
2018-May-19 05:26N 40°50' E 025°28'19 1.5
2018-May-18 16:41N 40°50' E 025°53'1 5.5
2018-May-18 16:25N 40°49' E 025°52'3 7.9
2018-May-18 15:59N 40°47' E 025°49'4 8.2
2018-May-18 15:30N 40°45' E 025°44'5 9.0
2018-May-18 15:00N 40°43' E 025°39'5 9.2
2018-May-18 14:27N 40°41' E 025°33'3 7.0
2018-May-18 14:00N 40°40' E 025°29'1 2.2
2018-May-18 13:30N 40°39' E 025°30'1 2.8
2018-May-18 13:00N 40°39' E 025°32'3 2.8
2018-May-18 12:03N 40°36' E 025°32'0 2.9
2018-May-18 12:00N 40°36' E 025°32'2 2.9
2018-May-18 11:27N 40°35' E 025°33'1 2.9
2018-May-18 10:59N 40°33' E 025°34'7 2.4
2018-May-18 08:15N 40°39' E 025°29'1 2.9
2018-May-18 08:00N 40°39' E 025°28'2 0.7
2018-May-18 05:41N 40°39' E 025°30'1 2.9
2018-May-18 05:30N 40°38' E 025°31'2 2.5
2018-May-18 04:33N 40°36' E 025°33'0 2.8
2018-May-18 04:28N 40°36' E 025°33'16 1.2
2018-May-17 15:25N 40°48' E 025°47'2 4.8
2018-May-17 14:58N 40°48' E 025°44'5 2.8
2018-May-17 13:03N 40°49' E 025°37'0 2.9
2018-May-17 12:59N 40°49' E 025°37'2 3.1
2018-May-17 12:30N 40°49' E 025°35'4 2.8
2018-May-17 11:07N 40°50' E 025°30'0 2.8
2018-May-17 11:00N 40°50' E 025°30'1 2.9
2018-May-17 10:30N 40°50' E 025°28'19 0.5
2018-May-15 15:58N 40°51' E 025°53'6 5.8
2018-May-15 14:53N 40°47' E 025°47'2 5.7
2018-May-15 14:30N 40°46' E 025°44'1 2.6
2018-May-15 14:00N 40°47' E 025°42'5 0.4
2018-May-15 03:14N 40°49' E 025°37'2 2.7
2018-May-15 02:35N 40°48' E 025°39'0 2.7
2018-May-15 02:29N 40°48' E 025°39'11 1.1
2018-May-14 16:45N 40°50' E 025°53'12 7.9
2018-May-14 15:15N 40°48' E 025°38'  
2018-May-10 14:27N 40°48' E 025°36'1 2.9
2018-May-10 13:59N 40°48' E 025°34'  
Track history (hours):
 
Tides and Currents Weather Stations Pressure Air Temp Water Temp Dewpoint Dewpoint Depression Visibility Wind Speed Wind Dir Waves Ship Positions

Capetan Polichronis

Last reported at 2018-May-20 13:14 UTC. Time now 2018-May-22 19:48 UTC.
Position N 40°48' E 025°35'.

Length 21 m; draft 2.1 m.

Type: Fishing. MMSI: 237058000.

Date/timePositionNaut miles runAvg speedWind from/ knotsBaromVisibWave heightAir tempDewpointWater temp
2018-May-20 13:14N 40°48' E 025°35'3 0.8
2018-May-20 10:00N 40°48' E 025°31'17 1.0
2018-May-19 17:04N 40°50' E 025°53'18 1.6
2018-May-19 06:09N 40°50' E 025°30'1 2.8
2018-May-19 05:57N 40°50' E 025°29'1 2.0
2018-May-19 05:26N 40°50' E 025°28'19 1.5
2018-May-18 16:41N 40°50' E 025°53'1 5.5
2018-May-18 16:25N 40°49' E 025°52'3 7.9
2018-May-18 15:59N 40°47' E 025°49'4 8.2
2018-May-18 15:30N 40°45' E 025°44'5 9.0
2018-May-18 15:00N 40°43' E 025°39'5 9.2
2018-May-18 14:27N 40°41' E 025°33'3 7.0
2018-May-18 14:00N 40°40' E 025°29'1 2.2
2018-May-18 13:30N 40°39' E 025°30'1 2.8
2018-May-18 13:00N 40°39' E 025°32'3 2.8
2018-May-18 12:03N 40°36' E 025°32'0 2.9
2018-May-18 12:00N 40°36' E 025°32'2 2.9
2018-May-18 11:27N 40°35' E 025°33'1 2.9
2018-May-18 10:59N 40°33' E 025°34'7 2.4
2018-May-18 08:15N 40°39' E 025°29'1 2.9
2018-May-18 08:00N 40°39' E 025°28'2 0.7
2018-May-18 05:41N 40°39' E 025°30'1 2.9
2018-May-18 05:30N 40°38' E 025°31'2 2.5
2018-May-18 04:33N 40°36' E 025°33'0 2.8
2018-May-18 04:28N 40°36' E 025°33'16 1.2
2018-May-17 15:25N 40°48' E 025°47'2 4.8
2018-May-17 14:58N 40°48' E 025°44'5 2.8
2018-May-17 13:03N 40°49' E 025°37'0 2.9
2018-May-17 12:59N 40°49' E 025°37'2 3.1
2018-May-17 12:30N 40°49' E 025°35'4 2.8
2018-May-17 11:07N 40°50' E 025°30'0 2.8
2018-May-17 11:00N 40°50' E 025°30'1 2.9
2018-May-17 10:30N 40°50' E 025°28'19 0.5
2018-May-15 15:58N 40°51' E 025°53'6 5.8
2018-May-15 14:53N 40°47' E 025°47'2 5.7
2018-May-15 14:30N 40°46' E 025°44'1 2.6
2018-May-15 14:00N 40°47' E 025°42'5 0.4
2018-May-15 03:14N 40°49' E 025°37'2 2.7
2018-May-15 02:35N 40°48' E 025°39'0 2.7
2018-May-15 02:29N 40°48' E 025°39'11 1.1
2018-May-14 16:45N 40°50' E 025°53'12 7.9
2018-May-14 15:15N 40°48' E 025°38'  
2018-May-10 14:27N 40°48' E 025°36'1 2.9
2018-May-10 13:59N 40°48' E 025°34'  

Dump ship's entire track history